createdAt,value
2022-11-10T00:01:22.015Z,17.02
2022-11-10T00:03:51.201Z,17.63
2022-11-10T00:06:19.967Z,16.52
2022-11-10T00:08:48.953Z,16.92
2022-11-10T00:11:17.850Z,17.58
2022-11-10T00:14:02.714Z,15.98
2022-11-10T00:16:50.558Z,14.50
2022-11-10T00:19:19.439Z,17.42
2022-11-10T00:21:48.230Z,17.33
2022-11-10T00:24:17.222Z,15.73
2022-11-10T00:26:46.017Z,16.52
2022-11-10T00:29:15.010Z,15.98
2022-11-10T00:31:45.127Z,16.10
2022-11-10T00:34:15.266Z,15.63
2022-11-10T00:36:44.168Z,15.95
2022-11-10T00:39:13.332Z,16.55
2022-11-10T00:41:42.120Z,15.98
2022-11-10T00:44:11.189Z,15.02
2022-11-10T00:46:39.927Z,17.85
2022-11-10T00:49:10.027Z,16.42
2022-11-10T00:51:38.900Z,14.88
2022-11-10T00:54:07.714Z,14.93
2022-11-10T00:56:36.585Z,14.60
2022-11-10T00:59:05.322Z,15.18
2022-11-10T01:01:34.972Z,14.82
2022-11-10T01:04:04.043Z,16.27
2022-11-10T01:06:34.443Z,15.32
2022-11-10T01:09:03.422Z,15.45
2022-11-10T01:11:32.272Z,15.15
2022-11-10T01:14:00.969Z,13.90
2022-11-10T01:16:30.666Z,15.57
2022-11-10T01:19:00.191Z,15.85
2022-11-10T01:21:29.330Z,15.45
2022-11-10T01:23:59.525Z,14.60
2022-11-10T01:26:28.266Z,14.52
2022-11-10T01:28:58.209Z,14.75
2022-11-10T01:31:27.006Z,16.67
2022-11-10T01:33:55.769Z,15.70
2022-11-10T01:36:24.540Z,17.00
2022-11-10T01:38:53.510Z,15.77
2022-11-10T01:41:23.778Z,15.30
2022-11-10T01:43:52.783Z,16.05
2022-11-10T01:46:21.564Z,16.05
2022-11-10T01:48:52.382Z,16.52
2022-11-10T01:51:24.235Z,15.80
2022-11-10T01:53:55.916Z,16.10
2022-11-10T01:56:26.151Z,14.93
2022-11-10T01:58:56.732Z,16.38
2022-11-10T02:01:25.547Z,16.30
2022-11-10T02:03:55.473Z,15.65
2022-11-10T02:06:25.730Z,16.08
2022-11-10T02:08:54.484Z,14.25
2022-11-10T02:11:23.303Z,15.05
2022-11-10T02:13:53.433Z,14.52
2022-11-10T02:16:22.295Z,14.70
2022-11-10T02:18:51.167Z,15.43
2022-11-10T02:21:21.598Z,13.70
2022-11-10T02:23:51.460Z,15.90
2022-11-10T02:26:21.981Z,15.52
2022-11-10T02:28:53.556Z,15.98
2022-11-10T02:31:22.393Z,15.02
2022-11-10T02:33:51.136Z,15.45
2022-11-10T02:36:21.282Z,15.93
2022-11-10T02:38:49.992Z,15.25
2022-11-10T02:41:18.761Z,15.38
2022-11-10T02:43:47.545Z,14.18
2022-11-10T02:46:16.355Z,15.02
2022-11-10T02:48:45.143Z,14.75
2022-11-10T02:51:13.868Z,15.15
2022-11-10T02:53:44.043Z,14.93
2022-11-10T02:56:13.094Z,14.75
2022-11-10T02:58:41.927Z,14.93
2022-11-10T03:01:10.820Z,13.98
2022-11-10T03:03:39.820Z,15.07
2022-11-10T03:06:08.602Z,14.70
2022-11-10T03:08:38.021Z,15.25
2022-11-10T03:11:08.226Z,15.00
2022-11-10T03:13:59.016Z,14.60
2022-11-10T03:16:25.784Z,14.88
2022-11-10T03:18:54.531Z,14.43
2022-11-10T03:21:23.334Z,14.10
2022-11-10T03:23:52.147Z,15.13
2022-11-10T03:26:23.075Z,15.50
2022-11-10T03:28:51.900Z,14.70
2022-11-10T03:31:20.797Z,15.65
2022-11-10T03:33:49.519Z,16.52
2022-11-10T03:36:18.429Z,16.08
2022-11-10T03:38:47.162Z,15.90
2022-11-10T03:41:20.495Z,14.60
2022-11-10T03:43:51.151Z,15.43
2022-11-10T03:46:19.989Z,15.35
2022-11-10T03:48:53.249Z,13.68
2022-11-10T03:51:23.045Z,15.60
2022-11-10T03:53:51.848Z,13.98
2022-11-10T03:56:20.648Z,14.23
2022-11-10T03:58:50.867Z,14.60
2022-11-10T04:01:19.708Z,14.25
2022-11-10T04:03:51.473Z,15.07
2022-11-10T04:06:38.040Z,14.95
2022-11-10T04:09:07.006Z,13.68
2022-11-10T04:11:53.748Z,15.38
2022-11-10T04:14:41.422Z,13.85
2022-11-10T04:17:10.737Z,14.38
2022-11-10T04:19:39.473Z,14.68
2022-11-10T04:22:28.435Z,14.00
2022-11-10T04:24:57.187Z,14.20
2022-11-10T04:27:26.199Z,14.13
2022-11-10T04:29:56.256Z,13.43
2022-11-10T04:32:25.493Z,14.43
2022-11-10T04:34:54.265Z,14.75
2022-11-10T04:37:22.978Z,14.45
2022-11-10T04:39:52.054Z,14.95
2022-11-10T04:42:20.822Z,13.13
2022-11-10T04:44:49.642Z,13.85
2022-11-10T04:47:19.854Z,14.48
2022-11-10T04:49:48.657Z,14.40
2022-11-10T04:52:17.419Z,14.85
2022-11-10T04:54:46.226Z,15.65
2022-11-10T04:57:15.000Z,14.27
2022-11-10T04:59:43.814Z,15.10
2022-11-10T05:02:12.567Z,14.60
2022-11-10T05:04:42.709Z,14.95
2022-11-10T05:07:11.549Z,14.45
2022-11-10T05:09:40.357Z,14.40
2022-11-10T05:12:09.467Z,14.00
2022-11-10T05:14:38.196Z,15.00
2022-11-10T05:17:07.076Z,15.32
2022-11-10T05:19:35.852Z,13.63
2022-11-10T05:22:07.156Z,14.23
2022-11-10T05:24:35.870Z,13.43
2022-11-10T05:27:05.914Z,13.95
2022-11-10T05:29:34.694Z,13.77
2022-11-10T05:32:03.456Z,14.20
2022-11-10T05:34:35.128Z,13.65
2022-11-10T05:37:05.165Z,13.73
2022-11-10T05:39:33.918Z,13.63
2022-11-10T05:42:02.637Z,14.63
2022-11-10T05:44:31.360Z,14.35
2022-11-10T05:47:00.042Z,13.93
2022-11-10T05:49:28.747Z,15.18
2022-11-10T05:51:57.446Z,14.15
2022-11-10T05:54:27.566Z,14.40
2022-11-10T05:56:56.371Z,14.50
2022-11-10T05:59:25.179Z,14.07
2022-11-10T06:01:53.891Z,13.57
2022-11-10T06:04:23.205Z,14.38
2022-11-10T06:06:52.132Z,14.52
2022-11-10T06:09:20.871Z,15.40
2022-11-10T06:11:53.931Z,14.48
2022-11-10T06:14:22.735Z,14.02
2022-11-10T06:16:51.597Z,14.20
2022-11-10T06:19:20.400Z,14.60
2022-11-10T06:21:49.276Z,15.35
2022-11-10T06:24:18.175Z,14.98
2022-11-10T06:26:47.105Z,13.98
2022-11-10T06:29:18.070Z,14.48
2022-11-10T06:31:49.296Z,14.68
2022-11-10T06:34:18.075Z,15.20
2022-11-10T06:36:47.177Z,15.35
2022-11-10T06:39:16.159Z,13.88
2022-11-10T06:41:44.941Z,12.98
2022-11-10T06:44:13.708Z,14.07
2022-11-10T06:46:44.032Z,14.13
2022-11-10T06:49:12.741Z,14.13
2022-11-10T06:51:41.547Z,13.30
2022-11-10T06:54:10.519Z,14.70
2022-11-10T06:56:39.342Z,15.10
2022-11-10T06:59:08.051Z,15.55
2022-11-10T07:01:36.909Z,14.60
2022-11-10T07:04:19.303Z,13.63
2022-11-10T07:06:48.918Z,15.05
2022-11-10T07:09:17.900Z,14.57
2022-11-10T07:11:46.711Z,13.68
2022-11-10T07:14:15.503Z,15.00
2022-11-10T07:16:44.486Z,14.23
2022-11-10T07:19:14.750Z,14.23
2022-11-10T07:21:43.626Z,15.25
2022-11-10T07:24:12.594Z,17.73
2022-11-10T07:26:41.322Z,18.00
2022-11-10T07:29:10.175Z,17.92
2022-11-10T07:31:38.941Z,17.52
2022-11-10T07:34:07.972Z,15.93
2022-11-10T07:36:38.157Z,16.55
2022-11-10T07:39:07.065Z,15.82
2022-11-10T07:41:35.916Z,15.30
2022-11-10T07:44:04.936Z,15.38
2022-11-10T07:46:33.722Z,14.75
2022-11-10T07:49:02.947Z,15.00
2022-11-10T07:51:31.879Z,15.43
2022-11-10T07:54:02.055Z,15.90
2022-11-10T07:56:30.878Z,14.70
2022-11-10T07:59:00.486Z,15.20
2022-11-10T08:01:29.291Z,15.73
2022-11-10T08:03:57.860Z,14.90
2022-11-10T08:06:27.224Z,15.25
2022-11-10T08:08:57.130Z,15.52
2022-11-10T08:11:27.262Z,14.48
2022-11-10T08:13:56.008Z,14.98
2022-11-10T08:16:24.819Z,14.90
2022-11-10T08:18:53.628Z,14.77
2022-11-10T08:21:22.536Z,15.55
2022-11-10T08:23:51.413Z,15.45
2022-11-10T08:26:20.400Z,15.60
2022-11-10T08:28:50.628Z,14.48
2022-11-10T08:31:19.370Z,14.80
2022-11-10T08:33:48.178Z,15.25
2022-11-10T08:36:17.278Z,15.07
2022-11-10T08:38:46.062Z,16.30
2022-11-10T08:41:15.961Z,15.55
2022-11-10T08:43:44.907Z,16.10
2022-11-10T08:46:15.232Z,15.23
2022-11-10T08:48:44.153Z,15.20
2022-11-10T08:51:13.248Z,15.60
2022-11-10T08:53:42.012Z,14.80
2022-11-10T08:56:10.953Z,14.40
2022-11-10T08:58:48.561Z,15.05
2022-11-10T09:01:20.727Z,14.70
2022-11-10T09:03:49.457Z,14.27
2022-11-10T09:06:18.650Z,14.32
2022-11-10T09:08:47.695Z,14.55
2022-11-10T09:11:16.809Z,14.75
2022-11-10T09:13:45.621Z,15.43
2022-11-10T09:16:14.506Z,14.98
2022-11-10T09:18:44.572Z,14.55
2022-11-10T09:21:13.540Z,14.55
2022-11-10T09:23:42.266Z,15.57
2022-11-10T09:26:13.039Z,18.80
2022-11-10T09:28:41.795Z,19.77
2022-11-10T09:31:10.610Z,17.70
2022-11-10T09:33:39.364Z,17.15
2022-11-10T09:36:10.242Z,17.88
2022-11-10T09:38:39.403Z,16.52
2022-11-10T09:41:09.564Z,17.30
2022-11-10T09:43:41.147Z,16.02
2022-11-10T09:46:14.412Z,15.70
2022-11-10T09:48:45.615Z,16.30
2022-11-10T09:51:18.426Z,15.45
2022-11-10T09:53:50.445Z,16.38
2022-11-10T09:56:22.784Z,16.20
2022-11-10T09:58:51.741Z,16.38
2022-11-10T10:01:30.218Z,16.02
2022-11-10T10:04:11.207Z,16.45
2022-11-10T10:07:09.486Z,17.88
2022-11-10T10:09:36.871Z,16.58
2022-11-10T10:12:12.932Z,16.38
2022-11-10T10:14:59.174Z,17.08
2022-11-10T10:17:29.989Z,17.45
2022-11-10T10:20:01.736Z,15.95
2022-11-10T10:22:42.031Z,15.52
2022-11-10T10:25:13.142Z,17.40
2022-11-10T10:27:42.148Z,15.93
2022-11-10T10:30:15.124Z,15.50
2022-11-10T10:32:43.927Z,15.45
2022-11-10T10:35:15.548Z,15.57
2022-11-10T10:37:47.150Z,15.57
2022-11-10T10:40:17.224Z,16.60
2022-11-10T10:42:46.342Z,17.50
2022-11-10T10:45:17.013Z,19.02
2022-11-10T10:47:46.087Z,20.17
2022-11-10T10:50:25.987Z,19.38
2022-11-10T10:53:15.123Z,18.73
2022-11-10T10:56:00.085Z,20.15
2022-11-10T10:58:29.778Z,21.08
2022-11-10T11:01:03.923Z,22.23
2022-11-10T11:03:40.758Z,24.52
2022-11-10T11:06:20.560Z,22.48
2022-11-10T11:08:59.702Z,22.60
2022-11-10T11:11:30.744Z,23.15
2022-11-10T11:14:21.013Z,22.27
2022-11-10T11:16:50.990Z,22.42
2022-11-10T11:19:20.617Z,20.77
2022-11-10T11:22:16.589Z,22.60
2022-11-10T11:24:48.588Z,20.90
2022-11-10T11:27:20.120Z,20.55
2022-11-10T11:29:59.589Z,19.33
2022-11-10T11:32:48.175Z,18.98
2022-11-10T11:35:20.024Z,19.38
2022-11-10T11:37:51.582Z,19.30
2022-11-10T11:40:26.382Z,18.77
2022-11-10T11:43:01.414Z,18.58
2022-11-10T11:45:35.071Z,20.30
2022-11-10T11:48:28.510Z,19.95
2022-11-10T11:50:58.518Z,18.55
2022-11-10T11:53:35.742Z,19.33
2022-11-10T11:56:12.526Z,18.23
2022-11-10T11:58:45.154Z,20.40
2022-11-10T12:01:24.699Z,17.63
2022-11-10T12:04:13.267Z,17.38
2022-11-10T12:06:48.228Z,18.00
2022-11-10T12:09:20.506Z,16.40
2022-11-10T12:11:59.002Z,18.20
2022-11-10T12:14:31.458Z,16.50
2022-11-10T12:17:04.124Z,16.95
2022-11-10T12:19:34.935Z,16.27
2022-11-10T12:22:06.863Z,16.50
2022-11-10T12:24:49.572Z,15.65
2022-11-10T12:27:21.895Z,16.63
2022-11-10T12:29:51.874Z,15.45
2022-11-10T12:32:23.224Z,16.73
2022-11-10T12:34:54.456Z,15.77
2022-11-10T12:37:28.014Z,15.30
2022-11-10T12:39:58.504Z,16.42
2022-11-10T12:42:29.736Z,23.75
2022-11-10T12:45:02.476Z,17.42
2022-11-10T12:47:34.725Z,21.52
2022-11-10T12:50:18.972Z,35.72
2022-11-10T12:52:50.614Z,31.17
2022-11-10T12:55:19.505Z,34.85
2022-11-10T12:57:49.853Z,27.33
2022-11-10T13:00:28.159Z,27.20
2022-11-10T13:02:59.045Z,27.25
2022-11-10T13:05:33.136Z,25.92
2022-11-10T13:08:27.503Z,24.63
2022-11-10T13:10:57.763Z,24.85
2022-11-10T13:13:28.015Z,24.83
2022-11-10T13:15:57.734Z,25.08
2022-11-10T13:18:59.327Z,23.80
2022-11-10T13:22:04.408Z,23.00
2022-11-10T13:24:33.344Z,18.73
2022-11-10T13:27:02.525Z,21.48
2022-11-10T13:29:35.105Z,21.02
2022-11-10T13:32:25.935Z,21.52
2022-11-10T13:34:54.731Z,20.77
2022-11-10T13:37:45.172Z,18.85
2022-11-10T13:40:37.819Z,19.90
2022-11-10T13:43:27.673Z,19.33
2022-11-10T13:46:04.770Z,17.90
2022-11-10T13:48:43.568Z,17.02
2022-11-10T13:51:26.790Z,15.85
2022-11-10T13:54:02.499Z,16.73
2022-11-10T13:57:05.663Z,15.75
2022-11-10T13:59:36.601Z,16.13
2022-11-10T14:03:02.121Z,16.05
2022-11-10T14:06:07.843Z,15.07
2022-11-10T14:08:43.419Z,13.85
2022-11-10T14:11:22.686Z,14.80
2022-11-10T14:13:55.950Z,13.80
2022-11-10T14:16:26.087Z,13.55
2022-11-10T14:18:59.766Z,13.90
2022-11-10T14:21:35.818Z,13.77
2022-11-10T14:24:17.979Z,13.20
2022-11-10T14:26:49.904Z,12.60
2022-11-10T14:29:33.041Z,12.27
2022-11-10T14:32:03.656Z,12.25
2022-11-10T14:34:33.732Z,12.43
2022-11-10T14:37:04.638Z,12.02
2022-11-10T14:39:34.231Z,12.57
2022-11-10T14:42:04.598Z,11.68
2022-11-10T14:44:34.490Z,10.90
2022-11-10T14:47:16.778Z,11.77
2022-11-10T14:49:45.523Z,13.60
2022-11-10T14:52:15.648Z,25.88
2022-11-10T14:54:45.778Z,20.77
2022-11-10T14:57:18.237Z,25.42
2022-11-10T14:59:47.059Z,22.95
2022-11-10T15:02:16.833Z,21.73
2022-11-10T15:04:46.353Z,18.75
2022-11-10T15:07:16.668Z,20.27
2022-11-10T15:10:13.507Z,20.60
2022-11-10T15:12:42.561Z,18.83
2022-11-10T15:15:20.737Z,15.80
2022-11-10T15:17:50.542Z,14.98
2022-11-10T15:20:30.256Z,14.52
2022-11-10T15:23:01.599Z,13.80
2022-11-10T15:25:35.779Z,14.45
2022-11-10T15:28:07.887Z,13.93
2022-11-10T15:30:36.616Z,14.82
2022-11-10T15:33:11.470Z,13.45
2022-11-10T15:35:40.219Z,12.98
2022-11-10T15:38:27.861Z,13.02
2022-11-10T15:41:16.407Z,12.85
2022-11-10T15:43:45.144Z,12.52
2022-11-10T15:46:18.140Z,12.40
2022-11-10T15:48:48.490Z,16.65
2022-11-10T15:51:24.467Z,13.32
2022-11-10T15:53:56.197Z,13.52
2022-11-10T15:56:25.609Z,23.10
2022-11-10T15:59:00.602Z,22.90
2022-11-10T16:01:30.987Z,25.35
2022-11-10T16:03:59.816Z,22.08
2022-11-10T16:06:30.678Z,22.20
2022-11-10T16:09:00.970Z,20.50
2022-11-10T16:11:29.924Z,18.77
2022-11-10T16:13:58.713Z,20.15
2022-11-10T16:16:27.585Z,19.50
2022-11-10T16:18:56.430Z,20.35
2022-11-10T16:21:26.098Z,19.40
2022-11-10T16:23:54.967Z,18.42
2022-11-10T16:26:26.125Z,19.23
2022-11-10T16:28:54.862Z,18.35
2022-11-10T16:31:23.736Z,17.73
2022-11-10T16:33:52.460Z,19.00
2022-11-10T16:36:24.906Z,15.45
2022-11-10T16:38:54.123Z,17.63
2022-11-10T16:41:24.429Z,17.17
2022-11-10T16:43:53.205Z,18.10
2022-11-10T16:46:22.946Z,16.77
2022-11-10T16:48:52.123Z,16.00
2022-11-10T16:51:22.614Z,17.92
2022-11-10T16:53:51.314Z,16.85
2022-11-10T16:56:21.486Z,17.75
2022-11-10T16:58:51.614Z,17.38
2022-11-10T17:01:21.372Z,17.23
2022-11-10T17:03:51.303Z,15.88
2022-11-10T17:06:20.168Z,16.45
2022-11-10T17:08:49.031Z,16.17
2022-11-10T17:11:17.917Z,15.98
2022-11-10T17:13:46.645Z,16.60
2022-11-10T17:16:28.265Z,16.45
2022-11-10T17:18:57.532Z,16.77
2022-11-10T17:21:31.567Z,16.98
2022-11-10T17:24:01.882Z,16.75
2022-11-10T17:26:30.991Z,16.38
2022-11-10T17:28:59.817Z,16.65
2022-11-10T17:31:30.192Z,16.63
2022-11-10T17:33:58.986Z,15.98
2022-11-10T17:36:27.763Z,16.35
2022-11-10T17:38:56.500Z,15.85
2022-11-10T17:41:25.230Z,15.95
2022-11-10T17:43:53.999Z,16.17
2022-11-10T17:46:23.047Z,15.95
2022-11-10T17:49:00.143Z,16.38
2022-11-10T17:51:31.539Z,16.52
2022-11-10T17:54:04.204Z,16.17
2022-11-10T17:56:33.111Z,16.30
2022-11-10T17:59:01.912Z,15.88
2022-11-10T18:01:30.796Z,16.42
2022-11-10T18:04:00.941Z,15.90
2022-11-10T18:06:29.819Z,16.30
2022-11-10T18:08:58.651Z,15.45
2022-11-10T18:11:27.401Z,16.38
2022-11-10T18:13:56.169Z,16.25
2022-11-10T18:16:27.131Z,16.63
2022-11-10T18:18:56.154Z,15.63
2022-11-10T18:21:26.593Z,16.60
2022-11-10T18:23:55.525Z,15.90
2022-11-10T18:26:24.334Z,15.40
2022-11-10T18:28:53.305Z,15.57
2022-11-10T18:31:22.204Z,15.52
2022-11-10T18:33:51.122Z,17.05
2022-11-10T18:36:19.891Z,17.67
2022-11-10T18:38:50.823Z,15.73
2022-11-10T18:41:36.937Z,15.70
2022-11-10T18:44:06.323Z,17.02
2022-11-10T18:46:35.114Z,16.83
2022-11-10T18:49:04.208Z,15.95
2022-11-10T18:51:33.212Z,17.05
2022-11-10T18:54:03.493Z,18.40
2022-11-10T18:56:32.259Z,18.83
2022-11-10T18:59:00.983Z,18.67
2022-11-10T19:01:29.845Z,19.80
2022-11-10T19:03:58.692Z,17.40
2022-11-10T19:06:27.470Z,29.27
2022-11-10T19:08:57.584Z,20.83
2022-11-10T19:11:27.704Z,18.90
2022-11-10T19:13:56.685Z,19.63
2022-11-10T19:16:25.377Z,17.60
2022-11-10T19:18:54.079Z,18.90
2022-11-10T19:21:23.979Z,18.20
2022-11-10T19:23:56.118Z,19.55
2022-11-10T19:26:26.790Z,18.65
2022-11-10T19:28:55.824Z,19.05
2022-11-10T19:31:25.179Z,18.80
2022-11-10T19:33:55.267Z,19.67
2022-11-10T19:36:24.996Z,16.67
2022-11-10T19:38:54.512Z,18.25
2022-11-10T19:41:24.162Z,16.65
2022-11-10T19:43:54.387Z,17.50
2022-11-10T19:46:23.984Z,17.75
2022-11-10T19:48:52.713Z,16.80
2022-11-10T19:51:22.727Z,18.23
2022-11-10T19:53:56.390Z,16.42
2022-11-10T19:56:28.985Z,17.42
2022-11-10T19:59:01.515Z,16.75
2022-11-10T20:01:32.578Z,17.88
2022-11-10T20:04:02.974Z,17.88
2022-11-10T20:06:31.919Z,16.95
2022-11-10T20:09:03.848Z,18.52
2022-11-10T20:11:32.621Z,18.42
2022-11-10T20:14:03.865Z,17.90
2022-11-10T20:16:33.652Z,16.95
2022-11-10T20:19:03.970Z,17.90
2022-11-10T20:21:32.783Z,17.65
2022-11-10T20:24:01.799Z,17.98
2022-11-10T20:26:30.980Z,18.30
2022-11-10T20:28:59.744Z,18.33
2022-11-10T20:31:30.288Z,17.58
2022-11-10T20:33:59.153Z,16.98
2022-11-10T20:36:29.228Z,16.95
2022-11-10T20:38:59.392Z,17.05
2022-11-10T20:41:29.668Z,17.17
2022-11-10T20:43:58.753Z,16.00
2022-11-10T20:49:17.622Z,17.92
2022-11-10T20:51:46.351Z,16.65
2022-11-10T20:54:17.433Z,17.63
2022-11-10T20:56:46.261Z,16.55
2022-11-10T20:59:15.031Z,17.55
2022-11-10T21:01:45.759Z,16.63
2022-11-10T21:04:15.066Z,16.50
2022-11-10T21:06:43.930Z,16.92
2022-11-10T21:09:12.890Z,17.65
2022-11-10T21:11:58.870Z,16.48
2022-11-10T21:14:27.603Z,16.17
2022-11-10T21:17:00.765Z,17.63
2022-11-10T21:19:33.025Z,16.55
2022-11-10T21:22:01.884Z,17.38
2022-11-10T21:24:30.681Z,17.98
2022-11-10T21:26:59.800Z,18.02
2022-11-10T21:29:28.617Z,18.02
2022-11-10T21:31:58.764Z,17.15
2022-11-10T21:34:28.849Z,17.98
2022-11-10T21:36:57.675Z,16.90
2022-11-10T21:39:26.516Z,17.58
2022-11-10T21:41:55.436Z,17.58
2022-11-10T21:44:24.821Z,18.00
2022-11-10T21:46:53.673Z,17.63
2022-11-10T21:49:23.844Z,17.75
2022-11-10T21:51:53.351Z,16.70
2022-11-10T21:54:22.190Z,17.17
2022-11-10T21:56:51.030Z,17.63
2022-11-10T21:59:20.286Z,17.67
2022-11-10T22:01:49.149Z,16.98
2022-11-10T22:04:18.080Z,17.80
2022-11-10T22:07:05.544Z,18.02
2022-11-10T22:09:51.902Z,17.23
2022-11-10T22:12:38.092Z,15.98
2022-11-10T22:15:25.310Z,17.17
2022-11-10T22:18:11.687Z,16.85
2022-11-10T22:20:40.709Z,17.65
2022-11-10T22:23:10.869Z,17.73
2022-11-10T22:25:39.899Z,16.35
2022-11-10T22:28:08.861Z,17.17
2022-11-10T22:30:38.747Z,17.23
2022-11-10T22:33:21.711Z,15.77
2022-11-10T22:35:58.078Z,17.17
2022-11-10T22:38:28.357Z,17.42
2022-11-10T22:41:16.892Z,16.98
2022-11-10T22:44:05.488Z,15.82
2022-11-10T22:46:35.085Z,16.45
2022-11-10T22:49:05.542Z,16.38
2022-11-10T22:51:34.593Z,16.30
2022-11-10T22:54:04.984Z,16.05
2022-11-10T22:56:34.033Z,16.77
2022-11-10T22:59:02.782Z,16.02
2022-11-10T23:01:31.858Z,16.02
2022-11-10T23:04:00.779Z,16.77
2022-11-10T23:06:29.784Z,16.15
2022-11-10T23:08:58.576Z,16.88
2022-11-10T23:11:30.127Z,16.85
2022-11-10T23:13:59.092Z,16.90
2022-11-10T23:16:28.817Z,16.50
2022-11-10T23:18:58.073Z,15.27
2022-11-10T23:21:27.966Z,17.23
2022-11-10T23:23:56.819Z,15.88
2022-11-10T23:26:26.415Z,15.75
2022-11-10T23:28:56.681Z,16.90
2022-11-10T23:31:26.274Z,16.60
2022-11-10T23:33:55.877Z,15.93
2022-11-10T23:36:25.556Z,15.75
2022-11-10T23:38:55.359Z,15.82
2022-11-10T23:41:26.084Z,16.60
2022-11-10T23:43:56.431Z,17.20
2022-11-10T23:46:25.238Z,17.88
2022-11-10T23:48:54.249Z,16.85
2022-11-10T23:51:24.787Z,16.45
2022-11-10T23:53:53.703Z,16.05
2022-11-10T23:56:22.429Z,17.17
2022-11-10T23:58:51.210Z,16.23
